createdAt,value
2022-09-22T00:00:54.224Z,0.00
2022-09-22T00:01:54.176Z,0.00
2022-09-22T00:02:54.081Z,0.00
2022-09-22T00:03:54.037Z,0.00
2022-09-22T00:04:53.985Z,0.00
2022-09-22T00:05:53.941Z,0.00
2022-09-22T00:06:53.892Z,0.00
2022-09-22T00:07:53.848Z,0.00
2022-09-22T00:08:53.801Z,0.00
2022-09-22T00:09:53.752Z,0.00
2022-09-22T00:10:53.702Z,0.00
2022-09-22T00:11:53.655Z,0.00
2022-09-22T00:12:53.607Z,0.00
2022-09-22T00:13:53.562Z,0.00
2022-09-22T00:14:53.538Z,0.00
2022-09-22T00:15:53.549Z,0.00
2022-09-22T00:16:53.421Z,0.00
2022-09-22T00:17:53.395Z,0.00
2022-09-22T00:18:53.323Z,0.00
2022-09-22T00:19:53.280Z,0.00
2022-09-22T00:20:53.230Z,0.00
2022-09-22T00:21:53.186Z,0.00
2022-09-22T00:22:53.135Z,0.00
2022-09-22T00:23:53.089Z,0.00
2022-09-22T00:24:53.041Z,0.00
2022-09-22T00:25:52.995Z,0.00
2022-09-22T00:26:52.946Z,0.00
2022-09-22T00:27:52.900Z,0.00
2022-09-22T00:28:52.876Z,0.00
2022-09-22T00:29:52.807Z,0.00
2022-09-22T00:30:52.763Z,0.00
2022-09-22T00:31:52.765Z,0.00
2022-09-22T00:32:52.664Z,0.00
2022-09-22T00:33:52.636Z,0.00
2022-09-22T00:34:52.569Z,0.00
2022-09-22T00:35:52.524Z,0.00
2022-09-22T00:36:52.473Z,0.00
2022-09-22T00:37:52.427Z,0.00
2022-09-22T00:38:52.378Z,0.00
2022-09-22T00:39:52.335Z,0.00
2022-09-22T00:40:52.286Z,0.00
2022-09-22T00:41:52.240Z,0.00
2022-09-22T00:42:52.189Z,0.00
2022-09-22T00:43:52.147Z,0.00
2022-09-22T00:44:52.098Z,0.00
2022-09-22T00:45:52.052Z,0.00
2022-09-22T00:46:52.098Z,0.00
2022-09-22T00:47:51.954Z,0.00
2022-09-22T00:48:51.904Z,0.00
2022-09-22T00:49:51.881Z,0.00
2022-09-22T00:50:51.810Z,0.00
2022-09-22T00:51:51.766Z,0.00
2022-09-22T00:52:51.719Z,0.00
2022-09-22T00:53:51.671Z,0.00
2022-09-22T00:54:51.623Z,0.00
2022-09-22T00:55:51.575Z,0.00
2022-09-22T00:56:51.528Z,0.00
2022-09-22T00:57:51.489Z,0.00
2022-09-22T00:58:51.432Z,0.00
2022-09-22T00:59:51.388Z,0.00
2022-09-22T01:00:51.436Z,0.00
2022-09-22T01:01:51.330Z,0.00
2022-09-22T01:02:51.244Z,0.00
2022-09-22T01:03:51.200Z,0.00
2022-09-22T01:04:51.148Z,0.00
2022-09-22T01:05:51.124Z,0.00
2022-09-22T01:06:51.055Z,0.00
2022-09-22T01:07:51.009Z,0.00
2022-09-22T01:11:17.565Z,0.00
2022-09-22T01:27:27.880Z,0.00
2022-09-22T01:28:27.818Z,0.00
2022-09-22T01:29:27.766Z,0.00
2022-09-22T01:30:27.923Z,0.00
2022-09-22T01:31:27.696Z,0.00
2022-09-22T01:32:27.624Z,0.00
2022-09-22T01:37:37.372Z,0.00
2022-09-22T01:38:37.327Z,0.00
2022-09-22T01:39:37.272Z,0.00
2022-09-22T01:40:37.326Z,0.00
2022-09-22T01:41:37.179Z,0.00
2022-09-22T01:42:37.258Z,0.00
2022-09-22T01:43:37.076Z,0.00
2022-09-22T01:44:37.030Z,0.00
2022-09-22T01:45:36.978Z,0.00
2022-09-22T01:46:36.971Z,0.00
2022-09-22T01:47:36.881Z,0.00
2022-09-22T01:48:36.837Z,0.00
2022-09-22T01:49:36.789Z,0.00
2022-09-22T01:50:36.737Z,0.00
2022-09-22T01:51:36.686Z,0.00
2022-09-22T01:52:36.637Z,0.00
2022-09-22T01:53:36.587Z,0.00
2022-09-22T01:54:36.542Z,0.00
2022-09-22T01:55:36.494Z,0.00
2022-09-22T01:56:36.442Z,0.00
2022-09-22T01:57:36.390Z,0.00
2022-09-22T01:58:36.361Z,0.00
2022-09-22T01:59:36.293Z,0.00
2022-09-22T02:00:36.245Z,0.00
2022-09-22T02:01:36.327Z,0.00
2022-09-22T02:02:36.340Z,0.00
2022-09-22T02:03:36.096Z,0.00
2022-09-22T02:04:36.048Z,0.00
2022-09-22T02:05:35.998Z,0.00
2022-09-22T02:06:35.950Z,0.00
2022-09-22T02:07:35.901Z,0.00
2022-09-22T02:08:35.853Z,0.00
2022-09-22T02:09:35.805Z,0.00
2022-09-22T02:10:35.757Z,0.00
2022-09-22T02:11:35.703Z,0.00
2022-09-22T02:12:35.656Z,0.00
2022-09-22T02:13:35.606Z,0.00
2022-09-22T02:14:35.573Z,0.00
2022-09-22T02:15:35.522Z,0.00
2022-09-22T02:16:35.459Z,0.00
2022-09-22T02:17:35.669Z,0.00
2022-09-22T02:18:35.360Z,0.00
2022-09-22T02:19:35.310Z,0.00
2022-09-22T02:20:35.263Z,0.00
2022-09-22T02:21:35.216Z,0.00
2022-09-22T02:22:35.169Z,0.00
2022-09-22T02:23:35.120Z,0.00
2022-09-22T02:24:35.072Z,0.00
2022-09-22T02:25:35.017Z,0.00
2022-09-22T02:26:34.968Z,0.00
2022-09-22T02:27:34.917Z,0.00
2022-09-22T02:28:34.873Z,0.00
2022-09-22T02:29:34.819Z,0.00
2022-09-22T02:30:34.789Z,0.00
2022-09-22T02:31:34.825Z,0.00
2022-09-22T02:32:34.676Z,0.00
2022-09-22T02:33:38.088Z,0.00
2022-09-22T02:34:34.577Z,0.00
2022-09-22T02:35:34.528Z,0.00
2022-09-22T02:36:34.478Z,0.00
2022-09-22T02:37:34.427Z,0.00
2022-09-22T02:38:34.376Z,0.00
2022-09-22T02:39:34.328Z,0.00
2022-09-22T02:40:34.383Z,0.00
2022-09-22T02:41:34.228Z,0.00
2022-09-22T02:42:34.182Z,0.00
2022-09-22T02:43:34.133Z,0.00
2022-09-22T02:44:34.082Z,0.00
2022-09-22T02:45:34.031Z,0.00
2022-09-22T02:46:34.105Z,0.00
2022-09-22T02:47:33.931Z,0.00
2022-09-22T02:48:33.887Z,0.00
2022-09-22T02:49:33.836Z,0.00
2022-09-22T02:50:33.788Z,0.00
2022-09-22T02:51:33.739Z,0.00
2022-09-22T02:52:33.689Z,0.00
2022-09-22T02:53:33.638Z,0.00
2022-09-22T02:54:33.590Z,0.00
2022-09-22T02:55:33.539Z,0.00
2022-09-22T02:56:33.549Z,0.00
2022-09-22T02:57:33.440Z,0.00
2022-09-22T02:58:33.393Z,0.00
2022-09-22T02:59:33.342Z,0.00
2022-09-22T03:00:33.293Z,0.00
2022-09-22T03:01:33.316Z,0.00
2022-09-22T03:02:33.213Z,0.00
2022-09-22T03:03:33.144Z,0.00
2022-09-22T03:04:33.199Z,0.00
2022-09-22T03:05:33.046Z,0.00
2022-09-22T03:06:32.998Z,0.00
2022-09-22T03:07:32.947Z,0.00
2022-09-22T03:08:32.901Z,0.00
2022-09-22T03:09:32.847Z,0.00
2022-09-22T03:10:32.801Z,0.00
2022-09-22T03:11:32.757Z,0.00
2022-09-22T03:12:32.701Z,0.00
2022-09-22T03:13:32.652Z,0.00
2022-09-22T03:14:32.601Z,0.00
2022-09-22T03:15:32.600Z,0.00
2022-09-22T03:16:32.504Z,0.00
2022-09-22T03:17:32.457Z,0.00
2022-09-22T03:18:32.422Z,0.00
2022-09-22T03:19:32.354Z,0.00
2022-09-22T03:20:32.311Z,0.00
2022-09-22T03:21:32.256Z,0.00
2022-09-22T03:22:32.208Z,0.00
2022-09-22T03:23:32.157Z,0.00
2022-09-22T03:24:32.109Z,0.00
2022-09-22T03:25:32.061Z,0.00
2022-09-22T03:26:32.008Z,0.00
2022-09-22T03:27:31.967Z,0.00
2022-09-22T03:28:31.912Z,0.00
2022-09-22T03:29:31.862Z,0.00
2022-09-22T03:30:31.897Z,0.00
2022-09-22T03:31:31.761Z,0.00
2022-09-22T03:32:31.716Z,0.00
2022-09-22T03:33:31.663Z,0.00
2022-09-22T03:34:31.643Z,0.00
2022-09-22T03:35:31.563Z,0.00
2022-09-22T03:36:31.515Z,0.00
2022-09-22T03:37:31.464Z,0.00
2022-09-22T03:38:31.416Z,0.00
2022-09-22T03:39:31.365Z,0.00
2022-09-22T03:40:31.353Z,0.00
2022-09-22T03:41:31.267Z,0.00
2022-09-22T03:42:31.216Z,0.00
2022-09-22T03:43:31.168Z,0.00
2022-09-22T03:44:31.123Z,0.00
2022-09-22T03:45:31.068Z,0.00
2022-09-22T03:46:31.182Z,0.00
2022-09-22T03:47:30.969Z,0.00
2022-09-22T03:48:30.922Z,0.00
2022-09-22T03:49:30.868Z,0.00
2022-09-22T03:50:30.841Z,0.00
2022-09-22T03:51:30.772Z,0.00
2022-09-22T03:52:30.725Z,0.00
2022-09-22T03:53:30.676Z,0.00
2022-09-22T03:54:30.623Z,0.00
2022-09-22T03:55:30.573Z,0.00
2022-09-22T03:56:30.526Z,0.00
2022-09-22T03:57:30.480Z,0.00
2022-09-22T03:58:30.425Z,0.00
2022-09-22T03:59:30.377Z,0.00
2022-09-22T04:00:30.326Z,0.00
2022-09-22T04:01:30.462Z,0.00
2022-09-22T04:02:30.260Z,0.00
2022-09-22T04:03:30.179Z,0.00
2022-09-22T04:04:30.130Z,0.00
2022-09-22T04:05:30.077Z,0.00
2022-09-22T04:06:30.049Z,0.00
2022-09-22T04:07:29.978Z,0.00
2022-09-22T04:08:29.932Z,0.00
2022-09-22T04:09:29.879Z,0.00
2022-09-22T04:10:29.830Z,0.00
2022-09-22T04:11:29.780Z,0.00
2022-09-22T04:12:29.732Z,0.00
2022-09-22T04:13:29.682Z,0.00
2022-09-22T04:14:29.632Z,0.00
2022-09-22T04:15:29.582Z,0.00
2022-09-22T04:16:29.597Z,0.00
2022-09-22T04:17:29.483Z,0.00
2022-09-22T04:18:29.434Z,0.00
2022-09-22T04:19:29.385Z,0.00
2022-09-22T04:20:29.337Z,0.00
2022-09-22T04:21:29.285Z,0.00
2022-09-22T04:22:29.257Z,0.00
2022-09-22T04:23:29.186Z,0.00
2022-09-22T04:24:29.138Z,0.00
2022-09-22T04:25:29.088Z,0.00
2022-09-22T04:26:29.044Z,0.00
2022-09-22T04:27:28.986Z,0.00
2022-09-22T04:28:28.940Z,0.00
2022-09-22T04:29:28.889Z,0.00
2022-09-22T04:30:28.932Z,0.00
2022-09-22T04:31:28.792Z,0.00
2022-09-22T04:32:28.743Z,0.00
2022-09-22T04:33:28.691Z,0.00
2022-09-22T04:34:28.657Z,0.00
2022-09-22T04:35:28.593Z,0.00
2022-09-22T04:36:28.545Z,0.00
2022-09-22T04:37:28.493Z,0.00
2022-09-22T04:38:28.460Z,0.00
2022-09-22T04:39:28.392Z,0.00
2022-09-22T04:40:28.445Z,0.00
2022-09-22T04:41:28.299Z,0.00
2022-09-22T04:42:28.246Z,0.00
2022-09-22T04:43:28.197Z,0.00
2022-09-22T04:44:28.152Z,0.00
2022-09-22T04:45:28.094Z,0.00
2022-09-22T04:46:28.090Z,0.00
2022-09-22T04:47:27.996Z,0.00
2022-09-22T04:48:27.946Z,0.00
2022-09-22T04:49:27.895Z,0.00
2022-09-22T04:50:27.846Z,0.00
2022-09-22T04:51:27.801Z,0.00
2022-09-22T04:52:27.747Z,0.00
2022-09-22T04:53:27.699Z,0.00
2022-09-22T04:54:27.666Z,0.00
2022-09-22T04:55:27.606Z,0.00
2022-09-22T04:56:27.559Z,0.00
2022-09-22T04:57:27.502Z,0.00
2022-09-22T04:58:27.449Z,0.00
2022-09-22T04:59:27.397Z,0.00
2022-09-22T05:00:27.355Z,0.00
2022-09-22T05:01:27.389Z,0.00
2022-09-22T05:02:27.251Z,0.00
2022-09-22T05:03:27.280Z,0.00
2022-09-22T05:04:27.159Z,0.00
2022-09-22T05:05:27.101Z,0.00
2022-09-22T05:06:27.055Z,0.00
2022-09-22T05:07:27.010Z,0.00
2022-09-22T05:08:26.957Z,0.00
2022-09-22T05:09:26.905Z,0.00
2022-09-22T05:10:26.872Z,0.00
2022-09-22T05:11:26.801Z,0.00
2022-09-22T05:12:26.755Z,0.00
2022-09-22T05:13:26.707Z,0.00
2022-09-22T05:14:26.659Z,0.00
2022-09-22T05:15:26.604Z,0.00
2022-09-22T05:16:26.672Z,0.00
2022-09-22T05:17:26.505Z,0.00
2022-09-22T05:18:26.457Z,0.00
2022-09-22T05:19:26.406Z,0.00
2022-09-22T05:20:26.357Z,0.00
2022-09-22T05:21:26.303Z,0.00
2022-09-22T05:22:26.256Z,0.00
2022-09-22T05:23:26.207Z,0.00
2022-09-22T05:24:26.156Z,0.00
2022-09-22T05:25:26.106Z,0.00
2022-09-22T05:26:26.077Z,0.00
2022-09-22T05:27:26.009Z,0.00
2022-09-22T05:28:25.958Z,0.00
2022-09-22T05:29:28.011Z,0.00
2022-09-22T05:30:25.860Z,0.00
2022-09-22T05:31:25.863Z,0.00
2022-09-22T05:32:25.759Z,0.00
2022-09-22T05:33:25.708Z,0.00
2022-09-22T05:34:25.660Z,0.00
2022-09-22T05:35:25.606Z,0.00
2022-09-22T05:36:25.560Z,0.00
2022-09-22T05:37:25.519Z,5.63
2022-09-22T05:38:25.460Z,5.63
2022-09-22T05:39:25.411Z,5.63
2022-09-22T05:40:25.395Z,5.63
2022-09-22T05:41:25.310Z,5.63
2022-09-22T05:42:25.277Z,5.63
2022-09-22T05:43:25.211Z,5.63
2022-09-22T05:44:25.165Z,5.63
2022-09-22T05:45:25.193Z,5.63
2022-09-22T05:46:25.062Z,5.63
2022-09-22T05:47:25.011Z,5.63
2022-09-22T05:48:28.877Z,5.63
2022-09-22T05:49:24.912Z,5.63
2022-09-22T05:50:24.863Z,5.63
2022-09-22T05:51:24.812Z,5.63
2022-09-22T05:52:24.762Z,5.63
2022-09-22T05:53:24.717Z,5.63
2022-09-22T05:54:24.666Z,5.63
2022-09-22T05:55:24.615Z,5.63
2022-09-22T05:56:24.563Z,5.63
2022-09-22T05:57:24.517Z,5.63
2022-09-22T05:58:24.484Z,5.63
2022-09-22T05:59:24.417Z,5.63
2022-09-22T06:00:24.366Z,5.63
2022-09-22T06:01:24.397Z,5.63
2022-09-22T06:02:26.466Z,5.63
2022-09-22T06:03:24.220Z,11.25
2022-09-22T06:04:24.166Z,11.25
2022-09-22T06:05:24.119Z,11.25
2022-09-22T06:06:24.071Z,11.25
2022-09-22T06:07:24.020Z,11.25
2022-09-22T06:08:23.969Z,11.25
2022-09-22T06:09:23.924Z,11.25
2022-09-22T06:10:23.874Z,11.25
2022-09-22T06:11:23.820Z,11.25
2022-09-22T06:12:23.772Z,11.25
2022-09-22T06:13:23.721Z,11.25
2022-09-22T06:14:23.688Z,11.25
2022-09-22T06:15:23.626Z,11.25
2022-09-22T06:16:23.623Z,11.25
2022-09-22T06:17:23.526Z,11.25
2022-09-22T06:18:24.795Z,11.25
2022-09-22T06:19:23.425Z,11.25
2022-09-22T06:20:23.374Z,11.25
2022-09-22T06:21:23.328Z,11.25
2022-09-22T06:22:23.273Z,11.25
2022-09-22T06:23:23.225Z,11.25
2022-09-22T06:24:23.175Z,11.25
2022-09-22T06:25:23.127Z,11.25
2022-09-22T06:26:23.077Z,16.88
2022-09-22T06:27:23.032Z,16.88
2022-09-22T06:28:22.977Z,16.88
2022-09-22T06:29:22.928Z,16.88
2022-09-22T06:30:22.896Z,16.88
2022-09-22T06:31:22.889Z,16.88
2022-09-22T06:32:22.778Z,16.88
2022-09-22T06:33:22.732Z,22.50
2022-09-22T06:34:22.685Z,22.50
2022-09-22T06:35:22.634Z,22.50
2022-09-22T06:36:22.582Z,22.50
2022-09-22T06:37:22.536Z,28.13
2022-09-22T06:38:22.492Z,28.13
2022-09-22T06:39:22.436Z,28.13
2022-09-22T06:40:22.454Z,28.13
2022-09-22T06:41:22.338Z,28.13
2022-09-22T06:42:22.284Z,28.13
2022-09-22T06:43:22.239Z,28.13
2022-09-22T06:44:22.186Z,33.75
2022-09-22T06:45:22.139Z,33.75
2022-09-22T06:46:22.133Z,39.38
2022-09-22T06:47:22.039Z,39.38
2022-09-22T06:48:21.995Z,45.00
2022-09-22T06:49:21.942Z,45.00
2022-09-22T06:50:21.889Z,45.00
2022-09-22T06:51:21.841Z,50.63
2022-09-22T06:52:21.791Z,56.25
2022-09-22T06:53:25.026Z,56.25
2022-09-22T06:54:24.781Z,56.25
2022-09-22T06:55:21.651Z,56.25
2022-09-22T06:56:21.595Z,56.25
2022-09-22T06:57:21.550Z,56.25
2022-09-22T06:58:21.499Z,56.25
2022-09-22T06:59:21.724Z,50.63
2022-09-22T07:00:21.402Z,50.63
2022-09-22T07:01:21.467Z,50.63
2022-09-22T07:02:21.354Z,50.63
2022-09-22T07:03:21.254Z,50.63
2022-09-22T07:04:21.206Z,45.00
2022-09-22T07:05:21.160Z,45.00
2022-09-22T07:06:21.107Z,45.00
2022-09-22T07:07:21.069Z,45.00
2022-09-22T07:08:21.014Z,45.00
2022-09-22T07:09:20.962Z,45.00
2022-09-22T07:10:20.916Z,45.00
2022-09-22T07:11:20.862Z,45.00
2022-09-22T07:12:20.812Z,45.00
2022-09-22T07:13:20.767Z,45.00
2022-09-22T07:14:20.721Z,45.00
2022-09-22T07:15:20.670Z,39.38
2022-09-22T07:16:20.696Z,39.38
2022-09-22T07:17:20.572Z,39.38
2022-09-22T07:18:20.541Z,39.38
2022-09-22T07:19:20.474Z,39.38
2022-09-22T07:20:20.426Z,39.38
2022-09-22T07:21:20.376Z,39.38
2022-09-22T07:22:20.326Z,39.38
2022-09-22T07:23:20.279Z,39.38
2022-09-22T07:24:20.229Z,39.38
2022-09-22T07:25:20.187Z,39.38
2022-09-22T07:26:20.134Z,39.38
2022-09-22T07:27:20.087Z,39.38
2022-09-22T07:28:20.035Z,39.38
2022-09-22T07:29:19.992Z,39.38
2022-09-22T07:30:19.941Z,39.38
2022-09-22T07:31:20.135Z,39.38
2022-09-22T07:32:19.848Z,39.38
2022-09-22T07:33:19.802Z,39.38
2022-09-22T07:34:19.764Z,39.38
2022-09-22T07:35:19.703Z,39.38
2022-09-22T07:36:19.652Z,45.00
2022-09-22T07:37:19.604Z,45.00
2022-09-22T07:38:19.552Z,45.00
2022-09-22T07:39:19.506Z,45.00
2022-09-22T07:40:19.522Z,45.00
2022-09-22T07:41:19.414Z,45.00
2022-09-22T07:42:19.360Z,45.00
2022-09-22T07:43:19.317Z,45.00
2022-09-22T07:44:19.265Z,45.00
2022-09-22T07:45:19.220Z,45.00
2022-09-22T07:46:19.184Z,45.00
2022-09-22T07:47:19.122Z,45.00
2022-09-22T07:48:19.079Z,45.00
2022-09-22T07:49:19.034Z,45.00
2022-09-22T07:50:18.994Z,45.00
2022-09-22T07:51:18.931Z,45.00
2022-09-22T07:52:18.884Z,45.00
2022-09-22T07:53:18.836Z,45.00
2022-09-22T07:54:18.788Z,45.00
2022-09-22T07:55:18.828Z,45.00
2022-09-22T07:56:18.692Z,45.00
2022-09-22T07:57:18.648Z,45.00
2022-09-22T07:58:18.595Z,45.00
2022-09-22T07:59:18.552Z,45.00
2022-09-22T08:00:18.506Z,45.00
2022-09-22T08:01:18.456Z,45.00
2022-09-22T08:02:18.480Z,50.63
2022-09-22T08:03:18.360Z,45.00
2022-09-22T08:04:18.315Z,45.00
2022-09-22T08:05:18.266Z,45.00
2022-09-22T08:06:18.503Z,45.00
2022-09-22T08:07:18.172Z,45.00
2022-09-22T08:08:18.125Z,45.00
2022-09-22T08:09:18.077Z,45.00
2022-09-22T08:10:18.034Z,45.00
2022-09-22T08:11:17.988Z,45.00
2022-09-22T08:12:17.935Z,45.00
2022-09-22T08:13:17.891Z,45.00
2022-09-22T08:14:17.838Z,45.00
2022-09-22T08:15:17.794Z,45.00
2022-09-22T08:16:17.815Z,45.00
2022-09-22T08:17:17.700Z,45.00
2022-09-22T08:18:17.652Z,45.00
2022-09-22T08:19:17.606Z,45.00
2022-09-22T08:20:17.556Z,45.00
2022-09-22T08:21:17.515Z,45.00
2022-09-22T08:22:17.484Z,45.00
2022-09-22T08:23:17.417Z,45.00
2022-09-22T08:24:17.370Z,45.00
2022-09-22T08:25:17.324Z,45.00
2022-09-22T08:26:17.278Z,45.00
2022-09-22T08:27:17.233Z,45.00
2022-09-22T08:28:17.184Z,45.00
2022-09-22T08:29:17.137Z,45.00
2022-09-22T08:30:17.087Z,45.00
2022-09-22T08:31:17.086Z,45.00
2022-09-22T08:32:16.997Z,45.00
2022-09-22T08:33:16.951Z,45.00
2022-09-22T08:34:17.028Z,45.00
2022-09-22T08:35:16.860Z,45.00
2022-09-22T08:36:16.808Z,45.00
2022-09-22T08:37:16.765Z,45.00
2022-09-22T08:38:16.755Z,45.00
2022-09-22T08:39:16.687Z,45.00
2022-09-22T08:40:16.733Z,45.00
2022-09-22T08:41:16.580Z,45.00
2022-09-22T08:42:16.529Z,45.00
2022-09-22T08:43:16.485Z,45.00
2022-09-22T08:44:16.438Z,45.00
2022-09-22T08:45:16.394Z,45.00
2022-09-22T08:46:16.373Z,45.00
2022-09-22T08:47:16.299Z,45.00
2022-09-22T08:48:16.251Z,45.00
2022-09-22T08:49:16.206Z,45.00
2022-09-22T08:50:16.161Z,45.00
2022-09-22T08:51:16.118Z,45.00
2022-09-22T08:52:16.067Z,45.00
2022-09-22T08:53:16.023Z,45.00
2022-09-22T08:54:15.995Z,45.00
2022-09-22T08:55:15.930Z,45.00
2022-09-22T08:56:15.883Z,45.00
2022-09-22T08:57:15.842Z,50.63
2022-09-22T08:58:15.790Z,50.63
2022-09-22T08:59:15.748Z,50.63
2022-09-22T09:00:15.745Z,50.63
2022-09-22T09:01:15.698Z,50.63
2022-09-22T09:02:15.607Z,50.63
2022-09-22T09:03:15.658Z,50.63
2022-09-22T09:04:15.515Z,50.63
2022-09-22T09:05:15.471Z,50.63
2022-09-22T09:06:15.426Z,50.63
2022-09-22T09:07:15.381Z,50.63
2022-09-22T09:08:15.341Z,50.63
2022-09-22T09:09:15.288Z,50.63
2022-09-22T09:10:15.264Z,50.63
2022-09-22T09:11:15.235Z,50.63
2022-09-22T09:12:15.149Z,50.63
2022-09-22T09:13:15.105Z,50.63
2022-09-22T09:14:15.058Z,50.63
2022-09-22T09:15:15.016Z,50.63
2022-09-22T09:16:15.019Z,50.63
2022-09-22T09:17:14.923Z,50.63
2022-09-22T09:18:14.875Z,50.63
2022-09-22T09:19:14.835Z,50.63
2022-09-22T09:20:14.787Z,50.63
2022-09-22T09:21:14.743Z,50.63
2022-09-22T09:22:14.695Z,50.63
2022-09-22T09:23:14.649Z,50.63
2022-09-22T09:25:22.383Z,45.00
2022-09-22T09:26:14.552Z,50.63
2022-09-22T09:27:14.469Z,45.00
2022-09-22T09:28:14.424Z,45.00
2022-09-22T09:29:14.380Z,45.00
2022-09-22T09:30:14.339Z,45.00
2022-09-22T09:31:14.311Z,45.00
2022-09-22T09:32:14.243Z,45.00
2022-09-22T09:33:14.197Z,45.00
2022-09-22T09:34:14.152Z,45.00
2022-09-22T09:35:14.111Z,50.63
2022-09-22T09:36:14.064Z,45.00
2022-09-22T09:37:14.021Z,45.00
2022-09-22T09:38:13.971Z,45.00
2022-09-22T09:39:13.926Z,45.00
2022-09-22T09:40:13.949Z,45.00
2022-09-22T09:41:13.837Z,45.00
2022-09-22T09:42:13.808Z,45.00
2022-09-22T09:43:13.753Z,45.00
2022-09-22T09:44:16.851Z,45.00
2022-09-22T09:45:13.666Z,45.00
2022-09-22T09:46:13.677Z,45.00
2022-09-22T09:47:13.567Z,45.00
2022-09-22T09:48:13.531Z,45.00
2022-09-22T09:49:13.477Z,45.00
2022-09-22T09:50:13.431Z,45.00
2022-09-22T09:51:13.393Z,45.00
2022-09-22T09:52:13.344Z,45.00
2022-09-22T09:53:13.298Z,45.00
2022-09-22T09:54:16.913Z,45.00
2022-09-22T09:55:13.210Z,45.00
2022-09-22T09:56:13.164Z,45.00
2022-09-22T09:57:13.130Z,45.00
2022-09-22T09:58:13.091Z,45.00
2022-09-22T09:59:13.032Z,45.00
2022-09-22T10:00:12.991Z,45.00
2022-09-22T10:01:12.958Z,45.00
2022-09-22T10:02:12.896Z,45.00
2022-09-22T10:03:12.853Z,39.38
2022-09-22T10:04:12.808Z,39.38
2022-09-22T10:05:12.761Z,39.38
2022-09-22T10:06:12.715Z,39.38
2022-09-22T10:07:12.671Z,39.38
2022-09-22T10:08:12.628Z,39.38
2022-09-22T10:09:12.583Z,39.38
2022-09-22T10:10:12.539Z,39.38
2022-09-22T10:11:12.491Z,39.38
2022-09-22T10:12:12.450Z,39.38
2022-09-22T10:13:16.019Z,39.38
2022-09-22T10:14:12.379Z,39.38
2022-09-22T10:15:12.316Z,39.38
2022-09-22T10:16:12.318Z,39.38
2022-09-22T10:17:12.228Z,39.38
2022-09-22T10:18:12.187Z,39.38
2022-09-22T10:19:12.138Z,39.38
2022-09-22T10:20:12.092Z,39.38
2022-09-22T10:21:12.052Z,39.38
2022-09-22T10:22:12.005Z,39.38
2022-09-22T10:23:12.008Z,39.38
2022-09-22T10:24:11.915Z,39.38
2022-09-22T10:25:11.869Z,39.38
2022-09-22T10:26:11.829Z,39.38
2022-09-22T10:27:11.783Z,39.38
2022-09-22T10:28:11.738Z,39.38
2022-09-22T10:29:11.692Z,39.38
2022-09-22T10:52:42.152Z,33.75
2022-09-22T10:53:42.003Z,33.75
2022-09-22T10:54:41.954Z,33.75
2022-09-22T10:55:41.908Z,33.75
2022-09-22T10:56:41.866Z,33.75
2022-09-22T10:57:41.822Z,33.75
2022-09-22T10:58:41.776Z,33.75
2022-09-22T10:59:41.735Z,33.75
2022-09-22T11:00:41.685Z,33.75
2022-09-22T11:01:41.696Z,33.75
2022-09-22T11:02:41.604Z,33.75
2022-09-22T11:03:41.555Z,33.75
2022-09-22T11:04:41.606Z,33.75
2022-09-22T11:05:41.466Z,33.75
2022-09-22T11:06:41.420Z,33.75
2022-09-22T11:07:41.378Z,33.75
2022-09-22T11:08:41.350Z,33.75
2022-09-22T11:10:41.245Z,33.75
2022-09-22T11:11:41.200Z,33.75
2022-09-22T11:12:41.159Z,33.75
2022-09-22T11:13:41.111Z,33.75
2022-09-22T11:14:41.067Z,33.75
2022-09-22T11:15:41.108Z,33.75
2022-09-22T11:16:40.982Z,33.75
2022-09-22T11:17:45.234Z,33.75
2022-09-22T11:18:40.891Z,33.75
2022-09-22T11:19:40.848Z,33.75
2022-09-22T11:20:40.803Z,33.75
2022-09-22T11:21:40.759Z,33.75
2022-09-22T11:22:40.715Z,33.75
2022-09-22T11:23:40.670Z,33.75
2022-09-22T11:24:40.643Z,33.75
2022-09-22T11:25:40.581Z,33.75
2022-09-22T11:26:40.538Z,33.75
2022-09-22T11:27:40.495Z,28.13
2022-09-22T11:28:40.450Z,22.50
2022-09-22T11:29:40.407Z,22.50
2022-09-22T11:30:40.433Z,39.38
2022-09-22T11:31:40.317Z,39.38
2022-09-22T11:32:40.273Z,39.38
2022-09-22T11:33:40.229Z,39.38
2022-09-22T11:34:40.182Z,39.38
2022-09-22T11:35:40.147Z,39.38
2022-09-22T11:36:40.098Z,39.38
2022-09-22T11:37:40.063Z,39.38
2022-09-22T11:38:40.009Z,39.38
2022-09-22T11:39:39.963Z,39.38
2022-09-22T11:40:40.067Z,39.38
2022-09-22T11:41:39.879Z,39.38
2022-09-22T11:42:39.830Z,39.38
2022-09-22T11:43:39.794Z,45.00
2022-09-22T11:44:39.744Z,45.00
2022-09-22T11:45:39.699Z,45.00
2022-09-22T11:46:39.654Z,45.00
2022-09-22T11:47:39.613Z,45.00
2022-09-22T11:48:39.566Z,45.00
2022-09-22T11:49:39.522Z,45.00
2022-09-22T11:50:39.485Z,45.00
2022-09-22T11:51:39.434Z,45.00
2022-09-22T11:52:39.389Z,50.63
2022-09-22T11:53:39.346Z,50.63
2022-09-22T11:54:39.301Z,50.63
2022-09-22T11:55:39.259Z,50.63
2022-09-22T11:56:39.235Z,61.88
2022-09-22T12:04:45.619Z,90.00
2022-09-22T12:05:45.582Z,90.00
2022-09-22T12:09:17.135Z,118.13
2022-09-22T12:10:17.094Z,118.13
2022-09-22T12:11:17.051Z,118.13
2022-09-22T12:12:17.025Z,118.13
2022-09-22T12:13:16.961Z,129.38
2022-09-22T12:14:16.924Z,129.38
2022-09-22T12:15:16.879Z,146.25
2022-09-22T12:16:16.838Z,157.50
2022-09-22T12:17:20.000Z,185.63
2022-09-22T12:18:16.752Z,196.88
2022-09-22T12:19:16.724Z,202.50
2022-09-22T12:20:16.669Z,196.88
2022-09-22T12:21:16.626Z,196.88
2022-09-22T12:22:16.582Z,191.25
2022-09-22T12:23:16.541Z,191.25
2022-09-22T12:24:16.498Z,180.00
2022-09-22T12:25:21.171Z,174.38
2022-09-22T12:26:16.414Z,174.38
2022-09-22T12:27:16.372Z,151.88
2022-09-22T12:28:16.346Z,118.13
2022-09-22T12:29:16.285Z,73.13
2022-09-22T12:30:16.245Z,50.63
2022-09-22T12:42:20.033Z,39.38
2022-09-22T12:44:48.444Z,45.00
2022-09-22T12:45:48.410Z,56.25
2022-09-22T12:46:48.339Z,67.50
2022-09-22T12:47:48.302Z,67.50
2022-09-22T12:48:48.255Z,73.13
2022-09-22T12:49:48.217Z,90.00
2022-09-22T12:50:48.173Z,78.75
2022-09-22T13:15:20.340Z,33.75
2022-09-22T13:16:20.316Z,33.75
2022-09-22T13:17:20.239Z,33.75
2022-09-22T13:18:20.190Z,33.75
2022-09-22T13:19:20.149Z,33.75
2022-09-22T13:20:20.103Z,33.75
2022-09-22T13:21:20.063Z,33.75
2022-09-22T13:22:20.019Z,33.75
2022-09-22T13:23:19.975Z,33.75
2022-09-22T13:24:19.930Z,33.75
2022-09-22T13:25:19.888Z,33.75
2022-09-22T13:26:19.846Z,33.75
2022-09-22T13:27:19.800Z,33.75
2022-09-22T13:28:19.756Z,33.75
2022-09-22T13:29:19.722Z,33.75
2022-09-22T13:30:19.676Z,33.75
2022-09-22T13:31:19.668Z,33.75
2022-09-22T13:32:19.583Z,33.75
2022-09-22T13:33:19.537Z,33.75
2022-09-22T13:34:19.495Z,33.75
2022-09-22T13:35:19.462Z,33.75
2022-09-22T13:36:19.417Z,33.75
2022-09-22T13:37:19.363Z,33.75
2022-09-22T13:38:19.333Z,33.75
2022-09-22T13:39:19.279Z,33.75
2022-09-22T13:40:19.292Z,33.75
2022-09-22T13:41:19.187Z,33.75
2022-09-22T13:42:19.151Z,33.75
2022-09-22T13:43:19.104Z,33.75
2022-09-22T13:44:19.061Z,33.75
2022-09-22T13:45:19.015Z,33.75
2022-09-22T13:46:19.043Z,33.75
2022-09-22T13:47:18.947Z,33.75
2022-09-22T13:48:18.885Z,33.75
2022-09-22T13:49:18.840Z,33.75
2022-09-22T13:50:21.612Z,33.75
2022-09-22T13:51:18.759Z,33.75
2022-09-22T13:52:18.712Z,33.75
2022-09-22T13:53:18.684Z,33.75
2022-09-22T13:54:18.623Z,33.75
2022-09-22T13:55:18.586Z,33.75
2022-09-22T13:56:21.740Z,33.75
2022-09-22T13:57:18.490Z,33.75
2022-09-22T13:58:18.450Z,33.75
2022-09-22T13:59:18.411Z,33.75
2022-09-22T14:00:18.361Z,33.75
2022-09-22T14:01:18.357Z,33.75
2022-09-22T14:02:18.400Z,33.75
2022-09-22T14:03:18.251Z,33.75
2022-09-22T14:04:18.186Z,33.75
2022-09-22T14:05:18.139Z,33.75
2022-09-22T14:06:18.100Z,33.75
2022-09-22T14:07:18.054Z,33.75
2022-09-22T14:08:20.183Z,33.75
2022-09-22T14:09:17.968Z,33.75
2022-09-22T14:10:17.924Z,33.75
2022-09-22T14:11:17.879Z,33.75
2022-09-22T14:12:17.841Z,33.75
2022-09-22T14:13:17.789Z,33.75
2022-09-22T14:14:17.747Z,33.75
2022-09-22T14:15:17.718Z,33.75
2022-09-22T14:16:17.737Z,39.38
2022-09-22T14:17:17.615Z,39.38
2022-09-22T14:18:17.574Z,39.38
2022-09-22T14:19:17.552Z,39.38
2022-09-22T14:20:17.498Z,39.38
2022-09-22T14:21:17.440Z,39.38
2022-09-22T14:22:17.398Z,39.38
2022-09-22T14:23:17.357Z,39.38
2022-09-22T14:24:17.309Z,39.38
2022-09-22T14:25:17.267Z,39.38
2022-09-22T14:26:17.221Z,39.38
2022-09-22T14:27:17.176Z,39.38
2022-09-22T14:28:17.132Z,39.38
2022-09-22T14:29:17.087Z,39.38
2022-09-22T14:30:17.046Z,39.38
2022-09-22T14:31:17.019Z,39.38
2022-09-22T14:32:16.958Z,39.38
2022-09-22T14:33:16.912Z,33.75
2022-09-22T14:34:16.872Z,33.75
2022-09-22T14:35:16.846Z,33.75